createdAt,value
2019-03-05T00:00:38.250Z,1.62
2019-03-05T00:03:31.351Z,1.47
2019-03-05T00:06:24.104Z,1.70
2019-03-05T00:09:16.903Z,1.52
2019-03-05T00:12:17.170Z,1.20
2019-03-05T00:15:11.214Z,1.37
2019-03-05T00:18:04.006Z,1.30
2019-03-05T00:20:56.809Z,1.30
2019-03-05T00:24:07.269Z,1.60
2019-03-05T00:27:00.072Z,1.75
2019-03-05T00:30:01.576Z,1.30
2019-03-05T00:32:54.376Z,1.90
2019-03-05T00:36:13.545Z,1.45
2019-03-05T00:39:19.655Z,0.90
2019-03-05T00:42:23.972Z,1.10
2019-03-05T00:45:32.390Z,1.07
2019-03-05T00:48:35.175Z,1.25
2019-03-05T00:51:54.605Z,1.72
2019-03-05T00:55:01.484Z,1.60
2019-03-05T00:58:08.359Z,1.30
2019-03-05T01:01:12.680Z,1.67
2019-03-05T01:04:16.999Z,1.35
2019-03-05T01:07:09.800Z,1.30
2019-03-05T01:10:02.855Z,1.30
2019-03-05T01:12:55.659Z,1.30
2019-03-05T01:15:48.454Z,1.42
2019-03-05T01:18:41.255Z,1.20
2019-03-05T01:21:30.471Z,1.45
2019-03-05T01:24:23.526Z,1.70
2019-03-05T01:27:17.093Z,1.25
2019-03-05T01:30:10.410Z,1.77
2019-03-05T01:33:07.054Z,1.60
2019-03-05T01:36:12.647Z,1.40
2019-03-05T01:39:19.782Z,1.22
2019-03-05T01:42:12.592Z,2.25
2019-03-05T01:45:05.639Z,1.65
2019-03-05T01:47:58.449Z,1.70
2019-03-05T01:50:51.243Z,1.50
2019-03-05T01:53:44.297Z,1.50
2019-03-05T01:56:45.544Z,1.67
2019-03-05T01:59:38.342Z,1.25
2019-03-05T02:02:32.175Z,1.30
2019-03-05T02:05:24.969Z,1.72
2019-03-05T02:08:17.767Z,2.02
2019-03-05T02:11:10.572Z,1.87
2019-03-05T02:14:03.369Z,1.60
2019-03-05T02:16:56.177Z,1.65
2019-03-05T02:20:09.190Z,1.55
2019-03-05T02:23:07.111Z,1.40
2019-03-05T02:26:02.470Z,0.93
2019-03-05T02:29:09.607Z,1.85
2019-03-05T02:32:16.745Z,1.45
2019-03-05T02:35:39.239Z,1.40
2019-03-05T02:38:52.517Z,1.15
2019-03-05T02:41:57.094Z,1.37
2019-03-05T02:45:01.415Z,1.35
2019-03-05T02:48:23.912Z,1.75
2019-03-05T02:51:34.375Z,1.40
2019-03-05T02:54:38.443Z,1.45
2019-03-05T02:57:26.375Z,1.30
2019-03-05T03:00:19.430Z,1.15
2019-03-05T03:03:16.086Z,1.60
2019-03-05T03:06:20.136Z,1.35
2019-03-05T03:09:12.942Z,2.10
2019-03-05T03:12:06.762Z,2.08
2019-03-05T03:14:59.569Z,1.10
2019-03-05T03:17:52.363Z,1.35
2019-03-05T03:20:41.840Z,1.25
2019-03-05T03:23:34.641Z,1.10
2019-03-05T03:26:24.137Z,1.20
2019-03-05T03:29:16.924Z,1.62
2019-03-05T03:32:09.705Z,1.37
2019-03-05T03:35:02.510Z,1.62
2019-03-05T03:37:55.310Z,1.02
2019-03-05T03:40:48.101Z,1.62
2019-03-05T03:43:40.902Z,1.45
2019-03-05T03:46:33.704Z,1.40
2019-03-05T03:49:26.505Z,2.00
2019-03-05T03:52:19.560Z,1.47
2019-03-05T03:55:12.625Z,1.57
2019-03-05T03:58:05.414Z,1.12
2019-03-05T04:00:58.471Z,1.42
2019-03-05T04:03:51.271Z,1.20
2019-03-05T04:06:44.073Z,2.27
2019-03-05T04:09:36.875Z,1.42
2019-03-05T04:12:29.671Z,2.40
2019-03-05T04:15:18.638Z,2.02
2019-03-05T04:18:11.944Z,1.85
2019-03-05T04:21:06.793Z,1.62
2019-03-05T04:23:59.592Z,1.90
2019-03-05T04:27:01.099Z,1.20
2019-03-05T04:29:54.919Z,1.27
2019-03-05T04:32:43.208Z,2.42
2019-03-05T04:35:36.171Z,1.47
2019-03-05T04:38:28.965Z,1.40
2019-03-05T04:41:21.512Z,1.77
2019-03-05T04:44:15.339Z,2.00
2019-03-05T04:47:10.439Z,1.40
2019-03-05T04:50:11.430Z,2.05
2019-03-05T04:53:04.493Z,2.33
2019-03-05T04:55:57.542Z,1.37
2019-03-05T04:58:51.366Z,1.87
2019-03-05T05:01:44.166Z,1.57
2019-03-05T05:04:36.971Z,1.62
2019-03-05T05:07:29.793Z,1.85
2019-03-05T05:10:22.566Z,1.15
2019-03-05T05:13:23.817Z,1.87
2019-03-05T05:16:16.616Z,1.67
2019-03-05T05:19:09.416Z,1.67
2019-03-05T05:21:58.633Z,1.10
2019-03-05T05:24:51.432Z,1.98
2019-03-05T05:27:44.493Z,1.95
2019-03-05T05:30:54.698Z,1.90
2019-03-05T05:33:47.754Z,1.80
2019-03-05T05:36:40.551Z,1.65
2019-03-05T05:39:43.340Z,1.32
2019-03-05T05:42:36.392Z,1.25
2019-03-05T05:45:30.728Z,1.85
2019-03-05T05:48:23.527Z,1.90
2019-03-05T05:51:16.325Z,1.25
2019-03-05T05:54:09.129Z,1.32
2019-03-05T05:57:01.931Z,1.70
2019-03-05T05:59:55.240Z,1.45
2019-03-05T06:02:48.309Z,1.60
2019-03-05T06:05:42.120Z,1.60
2019-03-05T06:08:29.417Z,1.40
2019-03-05T06:11:22.343Z,1.77
2019-03-05T06:14:15.142Z,1.70
2019-03-05T06:17:07.943Z,1.50
2019-03-05T06:20:00.746Z,1.82
2019-03-05T06:22:53.551Z,1.80
2019-03-05T06:25:46.599Z,1.05
2019-03-05T06:28:39.400Z,1.95
2019-03-05T06:31:33.735Z,1.98
2019-03-05T06:34:26.537Z,1.92
2019-03-05T06:37:19.590Z,1.65
2019-03-05T06:40:12.396Z,1.47
2019-03-05T06:43:05.451Z,1.10
2019-03-05T06:45:58.504Z,1.05
2019-03-05T06:48:51.560Z,1.80
2019-03-05T06:51:45.382Z,1.57
2019-03-05T06:54:38.206Z,1.82
2019-03-05T06:57:31.494Z,1.80
2019-03-05T07:00:24.295Z,1.62
2019-03-05T07:03:17.609Z,1.98
2019-03-05T07:06:20.391Z,1.55
2019-03-05T07:09:19.337Z,1.80
2019-03-05T07:12:26.740Z,1.67
2019-03-05T07:15:30.537Z,1.55
2019-03-05T07:18:25.898Z,1.52
2019-03-05T07:21:37.129Z,1.30
2019-03-05T07:24:44.776Z,1.50
2019-03-05T07:27:38.346Z,1.32
2019-03-05T07:30:37.033Z,1.65
2019-03-05T07:33:29.834Z,1.42
2019-03-05T07:36:19.819Z,1.65
2019-03-05T07:39:13.644Z,1.35
2019-03-05T07:42:06.696Z,2.45
2019-03-05T07:44:59.495Z,1.47
2019-03-05T07:47:52.554Z,1.45
2019-03-05T07:50:45.615Z,1.75
2019-03-05T07:53:38.666Z,1.50
2019-03-05T07:56:31.718Z,2.08
2019-03-05T07:59:24.519Z,1.45
2019-03-05T08:02:17.320Z,1.52
2019-03-05T08:05:10.119Z,1.45
2019-03-05T08:08:03.176Z,1.70
2019-03-05T08:10:55.980Z,1.00
2019-03-05T08:13:51.847Z,1.77
2019-03-05T08:16:47.462Z,1.65
2019-03-05T08:19:36.428Z,2.25
2019-03-05T08:22:29.229Z,1.57
2019-03-05T08:25:22.278Z,1.37
2019-03-05T08:28:16.359Z,1.27
2019-03-05T08:31:09.160Z,1.77
2019-03-05T08:34:01.958Z,1.32
2019-03-05T08:36:55.013Z,1.20
2019-03-05T08:39:47.815Z,1.47
2019-03-05T08:42:40.617Z,2.30
2019-03-05T08:45:34.438Z,1.92
2019-03-05T08:48:27.495Z,1.57
2019-03-05T08:51:20.296Z,2.15
2019-03-05T08:54:13.865Z,1.90
2019-03-05T08:57:07.944Z,1.50
2019-03-05T09:00:00.745Z,2.10
2019-03-05T09:02:53.543Z,1.40
2019-03-05T09:05:46.600Z,1.82
2019-03-05T09:08:52.199Z,2.37
2019-03-05T09:11:45.001Z,2.00
2019-03-05T09:14:38.060Z,1.70
2019-03-05T09:17:31.880Z,1.75
2019-03-05T09:20:21.103Z,2.08
2019-03-05T09:23:13.897Z,1.30
2019-03-05T09:26:06.695Z,1.80
2019-03-05T09:28:59.755Z,2.17
2019-03-05T09:31:52.551Z,1.40
2019-03-05T09:34:45.606Z,1.92
2019-03-05T09:37:38.409Z,2.40
2019-03-05T09:40:33.253Z,1.52
2019-03-05T09:43:26.059Z,2.08
2019-03-05T09:46:19.111Z,1.45
2019-03-05T09:49:12.169Z,2.05
2019-03-05T09:52:01.303Z,1.82
2019-03-05T09:54:54.183Z,1.30
2019-03-05T09:57:46.982Z,1.80
2019-03-05T10:00:36.712Z,1.50
2019-03-05T10:03:29.257Z,1.45
2019-03-05T10:06:22.314Z,1.87
2019-03-05T10:09:11.530Z,2.25
2019-03-05T10:12:05.094Z,2.22
2019-03-05T10:14:58.921Z,2.25
2019-03-05T10:17:51.718Z,2.08
2019-03-05T10:20:44.519Z,1.57
2019-03-05T10:23:37.577Z,1.52
2019-03-05T10:26:30.376Z,1.87
2019-03-05T10:29:23.178Z,1.00
2019-03-05T10:32:15.981Z,2.10
2019-03-05T10:35:08.775Z,1.50
2019-03-05T10:38:02.351Z,1.50
2019-03-05T10:40:55.656Z,1.60
2019-03-05T10:43:48.457Z,1.72
2019-03-05T10:46:42.028Z,1.85
2019-03-05T10:49:35.079Z,1.47
2019-03-05T10:52:28.136Z,2.40
2019-03-05T10:55:26.202Z,1.77
2019-03-05T10:58:10.407Z,1.95
2019-03-05T11:01:03.463Z,1.70
2019-03-05T11:03:56.263Z,1.62
2019-03-05T11:06:50.087Z,2.10
2019-03-05T11:09:42.888Z,1.87
2019-03-05T11:12:35.689Z,1.62
2019-03-05T11:15:29.513Z,1.52
2019-03-05T11:18:30.183Z,1.57
2019-03-05T11:21:23.046Z,1.45
2019-03-05T11:24:15.849Z,2.25
2019-03-05T11:27:08.660Z,1.37
2019-03-05T11:30:02.471Z,1.65
2019-03-05T11:32:55.527Z,1.52
2019-03-05T11:35:49.873Z,1.82
2019-03-05T11:38:42.919Z,1.47
2019-03-05T11:41:35.719Z,1.40
2019-03-05T11:44:28.779Z,1.80
2019-03-05T11:47:21.579Z,1.90
2019-03-05T11:50:14.374Z,1.55
2019-03-05T11:53:07.176Z,2.08
2019-03-05T11:55:54.600Z,1.80
2019-03-05T11:58:47.659Z,1.70
2019-03-05T12:01:48.647Z,1.85
2019-03-05T12:04:42.472Z,1.72
2019-03-05T12:07:36.295Z,2.17
2019-03-05T12:10:30.375Z,1.25
2019-03-05T12:13:24.198Z,2.55
2019-03-05T12:16:17.259Z,1.60
2019-03-05T12:19:10.056Z,1.07
2019-03-05T12:22:58.411Z,1.40
2019-03-05T12:25:51.208Z,1.22
2019-03-05T12:28:44.012Z,1.20
2019-03-05T12:31:31.365Z,1.57
2019-03-05T12:34:24.237Z,1.40
2019-03-05T12:37:17.293Z,1.67
2019-03-05T12:40:10.343Z,1.37
2019-03-05T12:43:03.156Z,1.25
2019-03-05T12:45:55.943Z,1.32
2019-03-05T12:48:48.744Z,1.22
2019-03-05T12:51:42.566Z,1.40
2019-03-05T12:54:35.624Z,2.22
2019-03-05T12:57:28.424Z,1.55
2019-03-05T13:00:21.735Z,1.80
2019-03-05T13:03:15.048Z,1.30
2019-03-05T13:06:07.851Z,1.42
2019-03-05T13:09:00.646Z,1.30
2019-03-05T13:11:53.702Z,1.95
2019-03-05T13:14:46.504Z,1.52
2019-03-05T13:17:39.304Z,1.70
2019-03-05T13:20:34.921Z,1.17
2019-03-05T13:23:27.723Z,1.30
2019-03-05T13:26:20.520Z,1.35
2019-03-05T13:29:14.461Z,1.45
2019-03-05T13:32:09.446Z,0.80
2019-03-05T13:35:03.527Z,1.02
2019-03-05T13:37:58.630Z,1.25
2019-03-05T13:40:49.639Z,1.12
2019-03-05T13:43:42.440Z,1.05
2019-03-05T13:46:35.239Z,1.40
2019-03-05T13:49:57.545Z,1.05
2019-03-05T13:53:15.150Z,0.88
2019-03-05T13:56:28.135Z,1.10
2019-03-05T13:59:39.368Z,1.32
2019-03-05T14:02:26.535Z,0.88
2019-03-05T14:05:36.744Z,1.00
2019-03-05T14:08:46.970Z,0.90
2019-03-05T14:11:41.054Z,1.32
2019-03-05T14:14:35.648Z,1.05
2019-03-05T14:17:40.199Z,1.37
2019-03-05T14:20:35.561Z,1.20
2019-03-05T14:23:28.375Z,0.78
2019-03-05T14:26:17.609Z,1.10
2019-03-05T14:29:11.400Z,1.20
2019-03-05T14:32:04.480Z,1.22
2019-03-05T14:38:03.637Z,1.00
2019-03-05T14:40:56.436Z,1.30
2019-03-05T14:43:49.485Z,1.27
2019-03-05T14:46:42.278Z,1.27
2019-03-05T14:49:35.082Z,0.95
2019-03-05T14:52:27.908Z,1.02
2019-03-05T14:55:21.190Z,1.17
2019-03-05T14:58:10.389Z,1.20
2019-03-05T15:01:03.222Z,1.30
2019-03-05T15:03:56.051Z,0.88
2019-03-05T15:06:49.958Z,1.30
2019-03-05T15:09:41.864Z,0.95
2019-03-05T15:12:34.680Z,1.30
2019-03-05T15:15:28.503Z,0.90
2019-03-05T15:18:21.285Z,1.10
2019-03-05T15:21:14.099Z,1.05
2019-03-05T15:24:07.003Z,1.00
2019-03-05T15:26:59.688Z,1.27
2019-03-05T15:29:53.025Z,1.55
2019-03-05T15:32:45.800Z,1.00
2019-03-05T15:35:38.889Z,1.32
2019-03-05T15:38:31.731Z,1.40
2019-03-05T15:41:24.486Z,1.00
2019-03-05T15:44:17.831Z,1.32
2019-03-05T15:47:10.609Z,1.20
2019-03-05T15:50:03.389Z,1.30
2019-03-05T15:52:56.172Z,1.05
2019-03-05T15:55:48.970Z,1.10
2019-03-05T15:58:41.767Z,1.27
2019-03-05T16:01:34.565Z,1.45
2019-03-05T16:04:27.370Z,1.57
2019-03-05T16:07:20.170Z,1.70
2019-03-05T16:10:13.313Z,1.55
2019-03-05T16:13:06.792Z,1.10
2019-03-05T16:16:00.359Z,1.30
2019-03-05T16:18:49.323Z,1.17
2019-03-05T16:21:42.898Z,1.35
2019-03-05T16:24:37.514Z,1.37
2019-03-05T16:27:23.878Z,1.07
2019-03-05T16:30:16.680Z,2.00
2019-03-05T16:33:15.880Z,1.10
2019-03-05T16:36:18.409Z,1.30
2019-03-05T16:39:27.331Z,1.35
2019-03-05T16:42:32.224Z,1.15
2019-03-05T16:45:39.311Z,1.30
2019-03-05T16:52:09.447Z,1.07
2019-03-05T16:55:11.979Z,1.47
2019-03-05T16:58:14.507Z,1.42
2019-03-05T17:01:24.969Z,1.37
2019-03-05T17:04:34.409Z,1.20
2019-03-05T17:07:47.687Z,1.70
2019-03-05T17:10:50.726Z,1.50
2019-03-05T17:13:44.552Z,1.10
2019-03-05T17:16:38.634Z,1.50
2019-03-05T17:19:31.686Z,1.45
2019-03-05T17:22:24.741Z,1.25
2019-03-05T17:28:23.917Z,1.30
2019-03-05T17:31:17.237Z,1.40
2019-03-05T17:34:13.101Z,1.67
2019-03-05T17:37:07.175Z,1.50
2019-03-05T17:39:59.975Z,1.02
2019-03-05T17:42:53.029Z,1.22
2019-03-05T17:45:46.090Z,1.90
2019-03-05T17:48:39.143Z,1.52
2019-03-05T17:51:31.955Z,1.65
2019-03-05T17:54:24.752Z,2.95
2019-03-05T17:57:17.555Z,1.37
2019-03-05T18:00:10.599Z,2.30
2019-03-05T18:03:05.710Z,1.57
2019-03-05T18:05:58.502Z,2.05
2019-03-05T18:09:24.082Z,2.27
2019-03-05T18:12:17.136Z,2.08
2019-03-05T18:15:10.187Z,1.85
2019-03-05T18:18:02.984Z,2.17
2019-03-05T18:20:55.787Z,2.17
2019-03-05T18:23:48.841Z,1.87
2019-03-05T18:26:36.011Z,2.17
2019-03-05T18:29:29.062Z,2.00
2019-03-05T18:32:22.119Z,2.30
2019-03-05T18:35:14.919Z,2.02
2019-03-05T18:38:07.982Z,3.27
2019-03-05T18:41:00.775Z,2.62
2019-03-05T18:43:53.574Z,2.95
2019-03-05T18:46:46.379Z,1.80
2019-03-05T18:49:53.254Z,1.92
2019-03-05T18:52:46.055Z,2.85
2019-03-05T18:55:39.111Z,2.80
2019-03-05T18:58:32.171Z,2.10
2019-03-05T19:01:24.969Z,2.20
2019-03-05T19:04:17.769Z,2.80
2019-03-05T19:07:10.571Z,2.85
2019-03-05T19:10:03.367Z,2.05
2019-03-05T19:12:56.171Z,1.95
2019-03-05T19:15:49.993Z,2.17
2019-03-05T19:18:42.795Z,2.15
2019-03-05T19:21:35.593Z,2.30
2019-03-05T19:24:28.647Z,1.80
2019-03-05T19:27:26.164Z,2.40
2019-03-05T19:30:14.504Z,2.85
2019-03-05T19:33:07.307Z,1.70
2019-03-05T19:36:01.132Z,2.37
2019-03-05T19:38:53.930Z,2.95
2019-03-05T19:41:55.797Z,2.00
2019-03-05T19:44:41.830Z,2.25
2019-03-05T19:47:34.637Z,2.05
2019-03-05T19:50:24.617Z,1.90
2019-03-05T19:53:17.671Z,2.08
2019-03-05T19:56:10.726Z,2.17
2019-03-05T19:59:03.532Z,2.17
2019-03-05T20:01:58.888Z,2.72
2019-03-05T20:04:51.706Z,1.75
2019-03-05T20:07:44.487Z,2.80
2019-03-05T20:10:39.082Z,2.47
2019-03-05T20:13:32.391Z,2.05
2019-03-05T20:16:25.706Z,1.40
2019-03-05T20:19:14.950Z,1.80
2019-03-05T20:22:07.717Z,2.60
2019-03-05T20:25:00.774Z,2.70
2019-03-05T20:27:53.577Z,2.12
2019-03-05T20:30:47.400Z,1.87
2019-03-05T20:33:41.225Z,3.72
2019-03-05T20:36:34.281Z,2.55
2019-03-05T20:39:27.592Z,2.85
2019-03-05T20:42:20.393Z,2.80
2019-03-05T20:45:13.193Z,2.33
2019-03-05T20:48:06.503Z,2.80
2019-03-05T20:51:00.330Z,1.67
2019-03-05T20:53:53.127Z,2.90
2019-03-05T20:56:46.183Z,2.62
2019-03-05T20:59:39.238Z,2.52
2019-03-05T21:02:32.296Z,2.83
2019-03-05T21:05:25.351Z,2.37
2019-03-05T21:08:19.697Z,2.47
2019-03-05T21:11:12.491Z,2.52
2019-03-05T21:14:06.059Z,2.50
2019-03-05T21:16:58.855Z,2.40
2019-03-05T21:19:51.655Z,2.10
2019-03-05T21:22:44.464Z,2.15
2019-03-05T21:25:37.517Z,1.98
2019-03-05T21:28:30.567Z,2.75
2019-03-05T21:31:23.373Z,2.52
2019-03-05T21:34:16.167Z,2.05
2019-03-05T21:37:08.967Z,2.52
2019-03-05T21:40:02.033Z,2.70
2019-03-05T21:42:56.102Z,2.62
2019-03-05T21:45:51.462Z,2.83
2019-03-05T21:48:45.293Z,2.33
2019-03-05T21:51:38.344Z,2.05
2019-03-05T21:54:31.398Z,2.80
2019-03-05T21:57:24.197Z,2.22
2019-03-05T22:00:17.003Z,2.17
2019-03-05T22:03:09.806Z,2.92
2019-03-05T22:06:02.600Z,2.70
2019-03-05T22:08:55.399Z,3.20
2019-03-05T22:11:49.994Z,2.83
2019-03-05T22:14:42.793Z,3.22
2019-03-05T22:17:35.591Z,3.15
2019-03-05T22:20:30.185Z,2.83
2019-03-05T22:23:22.982Z,2.47
2019-03-05T22:26:15.784Z,2.17
2019-03-05T22:29:10.123Z,2.37
2019-03-05T22:32:02.925Z,3.00
2019-03-05T22:34:55.720Z,3.00
2019-03-05T22:37:48.524Z,2.87
2019-03-05T22:40:41.327Z,2.35
2019-03-05T22:43:34.128Z,2.92
2019-03-05T22:46:27.944Z,2.80
2019-03-05T22:49:20.747Z,2.77
2019-03-05T22:52:13.543Z,3.20
2019-03-05T22:55:06.343Z,2.85
2019-03-05T22:58:00.174Z,2.30
2019-03-05T23:01:10.899Z,2.62
2019-03-05T23:04:10.854Z,2.72
2019-03-05T23:07:04.424Z,2.75
2019-03-05T23:09:57.228Z,3.02
2019-03-05T23:12:50.022Z,2.87
2019-03-05T23:15:42.829Z,2.83
2019-03-05T23:18:35.626Z,2.62
2019-03-05T23:21:29.446Z,3.17
2019-03-05T23:24:22.250Z,2.20
2019-03-05T23:27:15.052Z,2.58
2019-03-05T23:30:07.848Z,2.87
2019-03-05T23:33:00.646Z,2.30
2019-03-05T23:35:53.708Z,1.90
2019-03-05T23:38:46.761Z,3.15
2019-03-05T23:41:39.558Z,2.17
2019-03-05T23:44:32.617Z,2.40
2019-03-05T23:47:21.937Z,2.72
2019-03-05T23:50:11.178Z,2.98
2019-03-05T23:53:03.847Z,2.85
2019-03-05T23:55:52.974Z,3.17
2019-03-05T23:58:45.863Z,2.58
